createdAt,value
2019-04-30T00:00:45.396Z,6.37
2019-04-30T00:01:59.565Z,6.53
2019-04-30T00:03:15.970Z,6.57
2019-04-30T00:04:29.918Z,6.57
2019-04-30T00:05:35.168Z,6.57
2019-04-30T00:06:39.653Z,7.30
2019-04-30T00:07:46.101Z,7.30
2019-04-30T00:08:50.288Z,7.30
2019-04-30T00:09:57.537Z,7.53
2019-04-30T00:11:00.704Z,7.83
2019-04-30T00:12:05.662Z,7.83
2019-04-30T00:13:10.472Z,8.13
2019-04-30T00:14:16.523Z,7.62
2019-04-30T00:15:20.892Z,7.87
2019-04-30T00:16:25.369Z,7.80
2019-04-30T00:17:29.725Z,7.50
2019-04-30T00:18:35.897Z,8.60
2019-04-30T00:19:40.466Z,9.15
2019-04-30T00:20:46.970Z,8.30
2019-04-30T00:21:57.050Z,8.73
2019-04-30T00:22:56.969Z,9.80
2019-04-30T00:24:06.249Z,9.03
2019-04-30T00:25:07.795Z,9.65
2019-04-30T00:26:12.285Z,8.87
2019-04-30T00:27:20.920Z,9.13
2019-04-30T00:28:22.885Z,8.97
2019-04-30T00:29:30.843Z,8.40
2019-04-30T00:30:34.923Z,9.20
2019-04-30T00:31:39.666Z,8.53
2019-04-30T00:32:45.590Z,9.28
2019-04-30T00:33:52.707Z,9.65
2019-04-30T00:34:57.726Z,8.38
2019-04-30T00:36:02.165Z,9.23
2019-04-30T00:37:13.651Z,8.88
2019-04-30T00:38:12.893Z,9.05
2019-04-30T00:39:17.362Z,8.73
2019-04-30T00:40:26.015Z,9.08
2019-04-30T00:41:30.168Z,8.90
2019-04-30T00:42:35.655Z,9.53
2019-04-30T00:43:46.427Z,9.50
2019-04-30T00:44:45.899Z,9.58
2019-04-30T00:45:50.340Z,9.03
2019-04-30T00:46:55.890Z,9.63
2019-04-30T00:48:00.465Z,8.93
2019-04-30T00:49:11.289Z,8.68
2019-04-30T00:50:11.476Z,8.83
2019-04-30T00:51:21.163Z,9.53
2019-04-30T00:52:22.011Z,8.98
2019-04-30T00:53:26.401Z,8.43
2019-04-30T00:54:31.032Z,8.10
2019-04-30T00:55:40.215Z,7.83
2019-04-30T00:56:41.547Z,9.03
2019-04-30T00:57:47.464Z,8.10
2019-04-30T00:58:52.247Z,8.43
2019-04-30T00:59:57.022Z,8.03
2019-04-30T01:01:16.182Z,8.33
2019-04-30T01:02:33.508Z,7.55
2019-04-30T01:03:39.409Z,8.18
2019-04-30T01:04:47.119Z,7.35
2019-04-30T01:05:51.623Z,7.22
2019-04-30T01:07:00.221Z,6.80
2019-04-30T01:08:02.203Z,7.92
2019-04-30T01:09:08.702Z,7.65
2019-04-30T01:10:15.183Z,8.90
2019-04-30T01:11:19.703Z,8.18
2019-04-30T01:12:28.792Z,9.35
2019-04-30T01:13:30.283Z,8.00
2019-04-30T01:14:34.664Z,8.88
2019-04-30T01:15:39.108Z,8.10
2019-04-30T01:16:43.463Z,9.08
2019-04-30T01:17:50.920Z,8.93
2019-04-30T01:18:53.911Z,8.73
2019-04-30T01:19:59.215Z,8.70
2019-04-30T01:21:07.877Z,8.98
2019-04-30T01:22:09.933Z,8.58
2019-04-30T01:23:15.899Z,9.30
2019-04-30T01:24:23.499Z,9.65
2019-04-30T01:25:26.753Z,9.03
2019-04-30T01:26:33.632Z,9.65
2019-04-30T01:27:39.442Z,9.33
2019-04-30T01:28:44.473Z,9.80
2019-04-30T01:29:48.964Z,10.45
2019-04-30T01:30:53.985Z,10.13
2019-04-30T01:31:59.557Z,10.93
2019-04-30T01:33:04.033Z,11.20
2019-04-30T01:34:10.369Z,11.05
2019-04-30T01:35:14.703Z,10.38
2019-04-30T01:36:19.342Z,12.07
2019-04-30T01:37:28.629Z,11.38
2019-04-30T01:38:29.870Z,11.97
2019-04-30T01:39:34.260Z,11.77
2019-04-30T01:40:42.913Z,11.28
2019-04-30T01:41:48.824Z,12.05
2019-04-30T01:42:53.549Z,10.98
2019-04-30T01:43:58.475Z,11.65
2019-04-30T01:45:03.152Z,13.10
2019-04-30T01:46:12.142Z,13.05
2019-04-30T01:47:13.515Z,12.18
2019-04-30T01:48:19.406Z,11.95
2019-04-30T01:49:25.718Z,13.15
2019-04-30T01:50:33.712Z,12.45
2019-04-30T01:51:36.006Z,12.45
2019-04-30T01:52:52.643Z,14.38
2019-04-30T01:53:56.994Z,14.47
2019-04-30T01:55:01.400Z,16.55
2019-04-30T01:56:24.910Z,16.70
2019-04-30T01:58:00.758Z,16.23
2019-04-30T01:59:13.115Z,17.20
2019-04-30T02:00:29.346Z,18.87
2019-04-30T02:01:34.345Z,19.32
2019-04-30T02:02:40.071Z,18.75
2019-04-30T02:03:44.381Z,17.25
2019-04-30T02:04:49.241Z,18.00
2019-04-30T02:05:53.804Z,16.42
2019-04-30T02:06:59.219Z,15.68
2019-04-30T02:08:03.671Z,20.68
2019-04-30T02:09:09.144Z,20.20
2019-04-30T02:10:13.886Z,21.20
2019-04-30T02:11:18.958Z,23.18
2019-04-30T02:12:23.581Z,23.70
2019-04-30T02:13:29.470Z,23.92
2019-04-30T02:14:33.935Z,26.80
2019-04-30T02:15:39.034Z,25.80
2019-04-30T02:16:43.619Z,25.35
2019-04-30T02:17:50.241Z,25.05
2019-04-30T02:18:54.125Z,26.45
2019-04-30T02:19:59.278Z,24.00
2019-04-30T02:21:03.928Z,25.10
2019-04-30T02:22:09.512Z,26.30
2019-04-30T02:23:14.084Z,28.07
2019-04-30T02:24:19.182Z,31.90
2019-04-30T02:25:23.911Z,33.10
2019-04-30T02:26:28.662Z,31.95
2019-04-30T02:27:33.121Z,30.77
2019-04-30T02:28:39.274Z,31.25
2019-04-30T02:29:43.711Z,30.48
2019-04-30T02:30:50.518Z,35.05
2019-04-30T02:31:54.069Z,35.58
2019-04-30T02:33:00.606Z,37.95
2019-04-30T02:34:11.468Z,40.55
2019-04-30T02:35:33.982Z,41.15
2019-04-30T02:36:49.953Z,43.70
2019-04-30T02:38:13.102Z,42.43
2019-04-30T02:39:20.167Z,37.05
2019-04-30T02:40:23.611Z,45.40
2019-04-30T02:41:29.464Z,42.90
2019-04-30T02:42:34.788Z,44.05
2019-04-30T02:43:40.660Z,45.92
2019-04-30T02:44:45.696Z,46.45
2019-04-30T02:45:51.396Z,43.58
2019-04-30T02:47:00.349Z,42.80
2019-04-30T02:48:05.563Z,41.83
2019-04-30T02:49:11.317Z,44.73
2019-04-30T02:50:19.811Z,46.60
2019-04-30T02:51:24.983Z,49.15
2019-04-30T02:52:31.620Z,43.90
2019-04-30T02:54:24.146Z,49.05
2019-04-30T02:55:42.543Z,47.88
2019-04-30T02:56:51.359Z,46.02
2019-04-30T02:57:55.745Z,46.65
2019-04-30T02:59:03.366Z,46.92
2019-04-30T03:00:19.969Z,45.30
2019-04-30T03:01:22.834Z,52.85
2019-04-30T03:02:29.196Z,46.55
2019-04-30T03:03:33.740Z,54.27
2019-04-30T03:04:39.527Z,57.00
2019-04-30T03:05:44.100Z,59.23
2019-04-30T03:06:50.212Z,57.50
2019-04-30T03:07:54.527Z,55.45
2019-04-30T03:09:00.984Z,51.15
2019-04-30T03:10:05.583Z,60.30
2019-04-30T03:11:10.067Z,52.80
2019-04-30T03:12:14.422Z,64.17
2019-04-30T03:13:20.153Z,57.58
2019-04-30T03:14:24.728Z,55.40
2019-04-30T03:15:29.875Z,48.98
2019-04-30T03:17:00.222Z,52.08
2019-04-30T03:18:23.031Z,64.07
2019-04-30T03:19:36.155Z,47.55
2019-04-30T03:20:46.108Z,50.10
2019-04-30T03:21:54.788Z,52.10
2019-04-30T03:23:02.343Z,51.42
2019-04-30T03:24:05.213Z,52.10
2019-04-30T03:25:09.638Z,51.33
2019-04-30T03:26:13.981Z,47.17
2019-04-30T03:27:21.088Z,50.55
2019-04-30T03:28:24.525Z,46.85
2019-04-30T03:29:30.352Z,49.63
2019-04-30T03:30:35.008Z,49.55
2019-04-30T03:31:44.148Z,50.60
2019-04-30T03:32:55.168Z,40.80
2019-04-30T03:33:52.574Z,47.53
2019-04-30T03:34:57.094Z,45.17
2019-04-30T03:36:02.490Z,43.38
2019-04-30T03:37:09.727Z,46.48
2019-04-30T03:38:13.300Z,47.93
2019-04-30T03:39:19.799Z,45.52
2019-04-30T03:40:23.724Z,45.38
2019-04-30T03:41:33.066Z,50.00
2019-04-30T03:42:34.105Z,45.78
2019-04-30T03:43:40.068Z,46.70
2019-04-30T03:44:44.457Z,46.25
2019-04-30T03:45:49.960Z,53.20
2019-04-30T03:46:54.618Z,51.80
2019-04-30T03:48:00.329Z,52.48
2019-04-30T03:49:04.930Z,53.17
2019-04-30T03:50:09.442Z,59.15
2019-04-30T03:51:13.786Z,58.92
2019-04-30T03:52:19.712Z,58.63
2019-04-30T03:53:24.392Z,59.53
2019-04-30T03:54:29.245Z,56.00
2019-04-30T03:55:33.923Z,59.75
2019-04-30T03:56:39.581Z,56.90
2019-04-30T03:57:44.313Z,54.90
2019-04-30T03:58:50.346Z,56.30
2019-04-30T03:59:54.764Z,55.48
2019-04-30T04:01:09.914Z,58.78
2019-04-30T04:02:22.554Z,53.13
2019-04-30T04:03:29.198Z,54.67
2019-04-30T04:04:55.715Z,55.63
2019-04-30T04:06:22.643Z,54.30
2019-04-30T04:07:55.513Z,52.25
2019-04-30T04:09:06.261Z,48.75
2019-04-30T04:10:29.941Z,52.13
2019-04-30T04:11:39.686Z,50.52
2019-04-30T04:12:44.150Z,50.17
2019-04-30T04:13:49.577Z,49.38
2019-04-30T04:14:54.290Z,48.87
2019-04-30T04:15:59.915Z,48.60
2019-04-30T04:17:04.645Z,48.75
2019-04-30T04:18:10.615Z,50.75
2019-04-30T04:19:15.268Z,48.05
2019-04-30T04:20:20.228Z,51.87
2019-04-30T04:21:24.896Z,50.33
2019-04-30T04:22:30.607Z,46.63
2019-04-30T04:23:35.359Z,44.87
2019-04-30T04:24:40.285Z,46.60
2019-04-30T04:25:44.729Z,43.17
2019-04-30T04:26:50.255Z,44.13
2019-04-30T04:27:54.961Z,42.53
2019-04-30T04:28:59.597Z,41.50
2019-04-30T04:30:04.645Z,41.23
2019-04-30T04:31:09.551Z,40.75
2019-04-30T04:32:14.159Z,41.00
2019-04-30T04:33:19.915Z,40.00
2019-04-30T04:34:24.577Z,41.13
2019-04-30T04:35:29.872Z,42.00
2019-04-30T04:36:34.598Z,41.05
2019-04-30T04:37:39.538Z,43.13
2019-04-30T04:38:44.331Z,43.15
2019-04-30T04:39:50.293Z,42.30
2019-04-30T04:40:54.911Z,41.97
2019-04-30T04:42:00.006Z,43.40
2019-04-30T04:43:04.796Z,43.10
2019-04-30T04:44:09.996Z,38.95
2019-04-30T04:45:15.365Z,41.13
2019-04-30T04:46:20.547Z,43.35
2019-04-30T04:47:25.062Z,38.67
2019-04-30T04:48:29.900Z,37.63
2019-04-30T04:49:34.570Z,37.98
2019-04-30T04:50:40.026Z,39.55
2019-04-30T04:51:44.719Z,37.98
2019-04-30T04:52:49.546Z,36.73
2019-04-30T04:53:54.264Z,35.88
2019-04-30T04:55:00.374Z,39.18
2019-04-30T04:56:10.085Z,37.73
2019-04-30T04:57:18.300Z,39.40
2019-04-30T04:58:21.585Z,38.20
2019-04-30T04:59:26.309Z,38.33
2019-04-30T05:00:32.408Z,39.00
2019-04-30T05:01:38.647Z,36.83
2019-04-30T05:03:01.827Z,39.87
2019-04-30T05:04:06.218Z,41.50
2019-04-30T05:05:10.680Z,39.33
2019-04-30T05:06:14.986Z,40.00
2019-04-30T05:07:19.644Z,40.80
2019-04-30T05:08:24.123Z,40.07
2019-04-30T05:09:28.633Z,39.80
2019-04-30T05:10:33.197Z,41.40
2019-04-30T05:11:39.525Z,41.43
2019-04-30T05:12:43.539Z,42.70
2019-04-30T05:13:49.020Z,41.13
2019-04-30T05:14:53.620Z,42.77
2019-04-30T05:15:59.431Z,40.13
2019-04-30T05:17:03.909Z,39.90
2019-04-30T05:18:09.145Z,40.87
2019-04-30T05:19:13.757Z,40.33
2019-04-30T05:20:19.440Z,40.77
2019-04-30T05:21:24.083Z,40.17
2019-04-30T05:22:29.410Z,40.93
2019-04-30T05:23:33.903Z,38.50
2019-04-30T05:24:38.481Z,41.57
2019-04-30T05:25:44.335Z,40.57
2019-04-30T05:26:48.828Z,38.43
2019-04-30T05:27:53.322Z,40.43
2019-04-30T05:28:59.434Z,39.93
2019-04-30T05:30:04.743Z,40.17
2019-04-30T05:31:09.108Z,42.97
2019-04-30T05:32:13.430Z,41.20
2019-04-30T05:33:18.654Z,40.00
2019-04-30T05:34:23.123Z,39.97
2019-04-30T05:35:28.399Z,38.40
2019-04-30T05:36:33.475Z,39.07
2019-04-30T05:37:38.464Z,37.33
2019-04-30T05:38:43.023Z,38.13
2019-04-30T05:39:48.897Z,37.87
2019-04-30T05:40:53.513Z,37.97
2019-04-30T05:41:58.952Z,39.30
2019-04-30T05:43:03.479Z,37.67
2019-04-30T05:44:09.062Z,38.73
2019-04-30T05:45:13.640Z,38.20
2019-04-30T05:46:19.592Z,38.00
2019-04-30T05:47:24.240Z,38.23
2019-04-30T05:48:28.815Z,37.17
2019-04-30T05:49:33.240Z,37.33
2019-04-30T05:50:39.164Z,37.43
2019-04-30T05:51:53.643Z,37.47
2019-04-30T05:52:51.154Z,37.03
2019-04-30T05:53:55.479Z,37.13
2019-04-30T05:55:00.114Z,35.87
2019-04-30T05:56:04.884Z,36.43
2019-04-30T05:57:09.564Z,37.27
2019-04-30T05:58:13.994Z,35.63
2019-04-30T05:59:20.433Z,37.97
2019-04-30T06:00:24.767Z,37.47
2019-04-30T06:01:29.635Z,36.50
2019-04-30T06:02:34.572Z,36.53
2019-04-30T06:03:39.434Z,36.10
2019-04-30T06:04:43.732Z,34.43
2019-04-30T06:05:49.263Z,34.90
2019-04-30T06:06:53.898Z,34.07
2019-04-30T06:07:59.314Z,34.83
2019-04-30T06:09:18.741Z,33.87
2019-04-30T06:10:36.123Z,33.87
2019-04-30T06:11:55.361Z,33.67
2019-04-30T06:13:21.639Z,33.17
2019-04-30T06:14:45.882Z,34.17
2019-04-30T06:16:01.107Z,34.50
2019-04-30T06:17:16.856Z,32.30
2019-04-30T06:18:24.287Z,31.00
2019-04-30T06:19:29.235Z,31.17
2019-04-30T06:20:33.839Z,30.70
2019-04-30T06:21:39.090Z,31.20
2019-04-30T06:22:43.922Z,30.87
2019-04-30T06:23:49.276Z,29.90
2019-04-30T06:24:53.807Z,31.87
2019-04-30T06:26:06.740Z,30.80
2019-04-30T06:27:05.038Z,31.03
2019-04-30T06:28:11.067Z,30.97
2019-04-30T06:29:15.364Z,30.43
2019-04-30T06:30:19.875Z,30.60
2019-04-30T06:31:32.353Z,30.90
2019-04-30T06:32:30.918Z,30.33
2019-04-30T06:33:35.669Z,31.00
2019-04-30T06:34:41.933Z,30.47
2019-04-30T06:35:49.237Z,29.73
2019-04-30T06:36:56.927Z,31.57
2019-04-30T06:38:00.782Z,30.83
2019-04-30T06:39:06.545Z,29.47
2019-04-30T06:40:11.852Z,29.33
2019-04-30T06:41:16.236Z,28.47
2019-04-30T06:42:21.017Z,30.57
2019-04-30T06:43:26.124Z,30.70
2019-04-30T06:44:37.388Z,30.33
2019-04-30T06:45:38.805Z,29.63
2019-04-30T06:46:43.767Z,28.37
2019-04-30T06:47:49.016Z,29.43
2019-04-30T06:48:53.905Z,29.00
2019-04-30T06:49:58.761Z,29.93
2019-04-30T06:51:03.726Z,29.47
2019-04-30T06:52:19.559Z,29.00
2019-04-30T06:53:14.153Z,29.13
2019-04-30T06:54:19.161Z,29.53
2019-04-30T06:55:23.731Z,27.80
2019-04-30T06:56:28.912Z,28.70
2019-04-30T06:57:33.426Z,31.27
2019-04-30T06:58:39.188Z,29.70
2019-04-30T06:59:43.910Z,30.20
2019-04-30T07:00:49.667Z,30.13
2019-04-30T07:01:54.282Z,30.20
2019-04-30T07:02:59.087Z,28.40
2019-04-30T07:04:03.738Z,28.20
2019-04-30T07:05:10.206Z,28.30
2019-04-30T07:06:26.910Z,27.80
2019-04-30T07:07:23.178Z,27.50
2019-04-30T07:08:42.585Z,28.57
2019-04-30T07:09:58.407Z,29.57
2019-04-30T07:11:19.491Z,28.87
2019-04-30T07:12:43.103Z,27.63
2019-04-30T07:13:49.538Z,26.07
2019-04-30T07:14:55.070Z,27.17
2019-04-30T07:15:59.407Z,27.03
2019-04-30T07:17:03.776Z,27.30
2019-04-30T07:18:09.101Z,26.63
2019-04-30T07:19:13.643Z,26.83
2019-04-30T07:20:19.136Z,26.87
2019-04-30T07:21:23.755Z,27.57
2019-04-30T07:22:39.088Z,26.27
2019-04-30T07:23:34.212Z,26.43
2019-04-30T07:24:39.444Z,27.77
2019-04-30T07:25:43.850Z,28.43
2019-04-30T07:26:48.998Z,26.50
2019-04-30T07:27:53.428Z,27.60
2019-04-30T07:29:01.830Z,26.37
2019-04-30T07:30:04.196Z,26.47
2019-04-30T07:31:14.063Z,27.47
2019-04-30T07:32:14.752Z,27.73
2019-04-30T07:33:20.928Z,26.33
2019-04-30T07:34:25.343Z,27.53
2019-04-30T07:35:29.686Z,28.47
2019-04-30T07:36:45.719Z,28.23
2019-04-30T07:37:40.045Z,28.83
2019-04-30T07:38:51.660Z,28.27
2019-04-30T07:39:50.492Z,29.47
2019-04-30T07:40:54.822Z,27.77
2019-04-30T07:41:59.947Z,28.63
2019-04-30T07:43:04.619Z,29.93
2019-04-30T07:44:10.919Z,29.77
2019-04-30T07:45:15.147Z,28.53
2019-04-30T07:46:20.032Z,28.90
2019-04-30T07:47:24.614Z,29.00
2019-04-30T07:48:29.835Z,29.07
2019-04-30T07:49:46.946Z,29.17
2019-04-30T07:50:41.447Z,28.00
2019-04-30T07:51:46.879Z,29.20
2019-04-30T07:53:01.803Z,28.70
2019-04-30T07:53:59.033Z,28.60
2019-04-30T07:55:03.899Z,28.07
2019-04-30T07:56:24.001Z,28.50
2019-04-30T07:57:14.271Z,29.40
2019-04-30T07:58:20.462Z,29.17
2019-04-30T07:59:24.671Z,29.00
2019-04-30T08:00:31.178Z,29.33
2019-04-30T08:01:35.235Z,29.97
2019-04-30T08:02:45.597Z,29.60
2019-04-30T08:04:04.792Z,29.43
2019-04-30T08:05:32.015Z,28.43
2019-04-30T08:06:36.511Z,28.83
2019-04-30T08:07:40.932Z,30.33
2019-04-30T08:08:45.520Z,28.63
2019-04-30T08:09:50.127Z,28.93
2019-04-30T08:10:54.450Z,31.00
2019-04-30T08:11:58.981Z,28.97
2019-04-30T08:13:10.396Z,30.53
2019-04-30T08:14:09.941Z,30.77
2019-04-30T08:15:14.495Z,31.10
2019-04-30T08:16:18.829Z,30.37
2019-04-30T08:17:23.279Z,29.43
2019-04-30T08:18:29.453Z,29.37
2019-04-30T08:19:33.942Z,29.00
2019-04-30T08:20:39.287Z,30.10
2019-04-30T08:21:43.721Z,28.17
2019-04-30T08:22:49.403Z,28.70
2019-04-30T08:23:54.044Z,27.57
2019-04-30T08:24:58.752Z,28.00
2019-04-30T08:26:03.548Z,29.13
2019-04-30T08:27:09.745Z,27.57
2019-04-30T08:28:14.331Z,27.63
2019-04-30T08:29:19.487Z,27.63
2019-04-30T08:30:26.888Z,25.97
2019-04-30T08:31:30.228Z,26.60
2019-04-30T08:32:34.695Z,27.83
2019-04-30T08:33:40.221Z,26.03
2019-04-30T08:34:44.775Z,26.67
2019-04-30T08:35:49.875Z,26.83
2019-04-30T08:36:54.886Z,25.97
2019-04-30T08:37:59.379Z,24.57
2019-04-30T08:39:04.975Z,26.93
2019-04-30T08:40:09.868Z,26.63
2019-04-30T08:41:14.297Z,26.17
2019-04-30T08:42:29.072Z,26.07
2019-04-30T08:43:24.813Z,26.17
2019-04-30T08:44:29.622Z,25.40
2019-04-30T08:45:34.848Z,25.60
2019-04-30T08:46:39.437Z,26.00
2019-04-30T08:47:43.882Z,24.47
2019-04-30T08:48:53.061Z,23.93
2019-04-30T08:49:54.509Z,23.53
2019-04-30T08:50:59.550Z,21.07
2019-04-30T08:52:04.169Z,23.30
2019-04-30T08:53:10.960Z,22.10
2019-04-30T08:54:14.756Z,23.57
2019-04-30T08:55:22.039Z,22.63
2019-04-30T08:56:25.264Z,23.27
2019-04-30T08:57:29.831Z,22.37
2019-04-30T08:58:34.307Z,22.57
2019-04-30T08:59:39.493Z,23.37
2019-04-30T09:00:44.185Z,22.23
2019-04-30T09:01:48.805Z,20.77
2019-04-30T09:02:53.210Z,21.17
2019-04-30T09:03:59.455Z,21.27
2019-04-30T09:05:09.465Z,18.80
2019-04-30T09:06:19.541Z,19.80
2019-04-30T09:07:24.012Z,18.50
2019-04-30T09:08:29.457Z,17.83
2019-04-30T09:09:34.049Z,16.53
2019-04-30T09:10:39.290Z,16.70
2019-04-30T09:11:54.712Z,16.87
2019-04-30T09:12:52.032Z,17.83
2019-04-30T09:13:55.881Z,18.57
2019-04-30T09:15:00.220Z,18.67
2019-04-30T09:16:04.731Z,18.80
2019-04-30T09:17:09.319Z,17.23
2019-04-30T09:18:16.364Z,17.03
2019-04-30T09:19:21.324Z,17.47
2019-04-30T09:20:25.846Z,17.07
2019-04-30T09:21:30.181Z,16.43
2019-04-30T09:22:34.590Z,16.63
2019-04-30T09:23:47.314Z,16.63
2019-04-30T09:24:45.061Z,16.37
2019-04-30T09:25:49.787Z,16.70
2019-04-30T09:26:54.358Z,16.60
2019-04-30T09:27:58.951Z,16.13
2019-04-30T09:29:03.405Z,16.10
2019-04-30T09:30:10.373Z,16.50
2019-04-30T09:31:14.920Z,15.10
2019-04-30T09:32:19.500Z,15.97
2019-04-30T09:33:23.979Z,16.33
2019-04-30T09:34:29.077Z,15.43
2019-04-30T09:35:34.580Z,15.80
2019-04-30T09:36:39.191Z,15.27
2019-04-30T09:37:43.758Z,15.77
2019-04-30T09:38:48.557Z,16.70
2019-04-30T09:39:53.140Z,16.43
2019-04-30T09:40:59.443Z,16.20
2019-04-30T09:42:03.660Z,16.63
2019-04-30T09:43:08.670Z,16.60
2019-04-30T09:44:13.254Z,15.80
2019-04-30T09:45:18.689Z,15.67
2019-04-30T09:46:27.045Z,15.87
2019-04-30T09:47:29.640Z,17.30
2019-04-30T09:48:34.258Z,16.87
2019-04-30T09:49:39.144Z,16.10
2019-04-30T09:50:45.046Z,15.57
2019-04-30T09:51:50.342Z,16.47
2019-04-30T09:52:54.956Z,16.23
2019-04-30T09:54:02.861Z,16.63
2019-04-30T09:55:05.749Z,15.80
2019-04-30T09:56:10.148Z,16.60
2019-04-30T09:57:14.478Z,16.80
2019-04-30T09:58:21.071Z,15.77
2019-04-30T09:59:24.883Z,16.17
2019-04-30T10:00:29.632Z,17.33
2019-04-30T10:01:34.124Z,16.80
2019-04-30T10:02:38.975Z,16.40
2019-04-30T10:03:43.849Z,16.10
2019-04-30T10:04:49.043Z,16.87
2019-04-30T10:05:53.882Z,16.07
2019-04-30T10:06:59.581Z,16.40
2019-04-30T10:08:04.294Z,16.20
2019-04-30T10:09:11.155Z,15.33
2019-04-30T10:10:18.910Z,14.90
2019-04-30T10:11:45.501Z,15.73
2019-04-30T10:12:50.709Z,15.47
2019-04-30T10:13:55.128Z,16.03
2019-04-30T10:14:59.491Z,16.60
2019-04-30T10:16:10.596Z,15.23
2019-04-30T10:17:25.060Z,16.37
2019-04-30T10:18:29.464Z,16.00
2019-04-30T10:19:33.853Z,15.97
2019-04-30T10:20:42.959Z,16.00
2019-04-30T10:21:48.945Z,16.47
2019-04-30T10:22:53.475Z,16.83
2019-04-30T10:24:10.453Z,16.67
2019-04-30T10:25:05.844Z,15.97
2019-04-30T10:26:10.250Z,16.20
2019-04-30T10:27:14.764Z,16.60
2019-04-30T10:28:19.715Z,15.60
2019-04-30T10:29:25.804Z,16.87
2019-04-30T10:30:35.592Z,17.17
2019-04-30T10:31:39.971Z,15.10
2019-04-30T10:32:44.356Z,16.00
2019-04-30T10:33:48.769Z,15.90
2019-04-30T10:34:53.179Z,16.23
2019-04-30T10:35:59.387Z,16.00
2019-04-30T10:37:03.796Z,16.47
2019-04-30T10:38:09.852Z,16.90
2019-04-30T10:39:14.536Z,16.27
2019-04-30T10:40:20.322Z,15.40
2019-04-30T10:41:25.220Z,16.63
2019-04-30T10:42:29.696Z,15.67
2019-04-30T10:43:34.167Z,16.20
2019-04-30T10:44:38.666Z,15.27
2019-04-30T10:45:43.320Z,16.63
2019-04-30T10:46:47.854Z,15.80
2019-04-30T10:47:52.260Z,15.93
2019-04-30T10:48:56.724Z,15.73
2019-04-30T10:50:01.159Z,15.03
2019-04-30T10:51:05.573Z,16.00
2019-04-30T10:52:09.977Z,16.07
2019-04-30T10:53:14.518Z,16.10
2019-04-30T10:54:25.784Z,16.23
2019-04-30T10:55:25.065Z,15.83
2019-04-30T10:56:29.451Z,16.80
2019-04-30T10:57:33.886Z,15.77
2019-04-30T10:58:38.285Z,16.17
2019-04-30T10:59:42.633Z,15.77
2019-04-30T11:00:47.125Z,15.23
2019-04-30T11:01:51.679Z,15.57
2019-04-30T11:02:56.064Z,17.10
2019-04-30T11:04:00.545Z,15.63
2019-04-30T11:05:05.412Z,15.50
2019-04-30T11:06:09.802Z,15.77
2019-04-30T11:07:14.225Z,15.07
2019-04-30T11:08:18.704Z,15.43
2019-04-30T11:09:24.136Z,16.23
2019-04-30T11:10:29.395Z,15.67
2019-04-30T11:11:33.876Z,16.17
2019-04-30T11:12:39.156Z,16.40
2019-04-30T11:13:43.571Z,16.30
2019-04-30T11:14:47.935Z,15.53
2019-04-30T11:15:52.319Z,16.53
2019-04-30T11:16:56.795Z,15.47
2019-04-30T11:18:01.564Z,15.83
2019-04-30T11:19:06.308Z,16.67
2019-04-30T11:20:11.461Z,16.03
2019-04-30T11:21:15.972Z,15.73
2019-04-30T11:22:20.668Z,15.70
2019-04-30T11:23:25.244Z,15.60
2019-04-30T11:24:36.448Z,15.43
2019-04-30T11:25:36.479Z,15.20
2019-04-30T11:26:42.080Z,15.53
2019-04-30T11:27:48.151Z,15.67
2019-04-30T11:28:53.193Z,15.17
2019-04-30T11:30:03.235Z,14.47
2019-04-30T11:31:22.056Z,14.77
2019-04-30T11:32:26.903Z,15.70
2019-04-30T11:33:31.746Z,14.97
2019-04-30T11:34:36.300Z,14.93
2019-04-30T11:35:40.645Z,14.67
2019-04-30T11:36:45.114Z,15.53
2019-04-30T11:37:49.739Z,14.60
2019-04-30T11:38:54.212Z,14.70
2019-04-30T11:39:58.546Z,14.63
2019-04-30T11:41:02.939Z,15.75
2019-04-30T11:42:07.679Z,14.03
2019-04-30T11:43:12.118Z,13.95
2019-04-30T11:44:28.463Z,15.10
2019-04-30T11:45:23.018Z,14.50
2019-04-30T11:46:50.363Z,14.33
2019-04-30T11:47:54.728Z,13.43
2019-04-30T11:48:59.215Z,14.65
2019-04-30T11:50:05.329Z,14.10
2019-04-30T11:51:09.732Z,14.15
2019-04-30T11:52:14.338Z,14.45
2019-04-30T11:53:25.409Z,14.47
2019-04-30T11:54:24.800Z,13.80
2019-04-30T11:55:29.210Z,15.70
2019-04-30T11:56:33.642Z,14.58
2019-04-30T11:57:39.700Z,14.68
2019-04-30T11:58:44.472Z,14.18
2019-04-30T11:59:48.969Z,14.10
2019-04-30T12:00:53.440Z,14.00
2019-04-30T12:01:59.424Z,13.68
2019-04-30T12:03:03.839Z,12.20
2019-04-30T12:04:09.317Z,12.55
2019-04-30T12:05:20.345Z,13.50
2019-04-30T12:06:23.056Z,14.35
2019-04-30T12:07:43.179Z,14.38
2019-04-30T12:09:09.417Z,13.62
2019-04-30T12:10:22.016Z,14.25
2019-04-30T12:11:31.724Z,13.15
2019-04-30T12:12:36.056Z,13.32
2019-04-30T12:13:40.368Z,13.80
2019-04-30T12:14:44.724Z,14.38
2019-04-30T12:15:50.162Z,14.18
2019-04-30T12:16:54.639Z,12.90
2019-04-30T12:17:59.030Z,13.75
2019-04-30T12:19:03.596Z,13.43
2019-04-30T12:20:08.752Z,14.00
2019-04-30T12:21:13.122Z,12.73
2019-04-30T12:22:19.993Z,13.75
2019-04-30T12:23:23.660Z,13.45
2019-04-30T12:24:30.268Z,13.13
2019-04-30T12:25:34.092Z,14.15
2019-04-30T12:26:39.005Z,13.72
2019-04-30T12:27:43.539Z,13.72
2019-04-30T12:28:47.923Z,14.00
2019-04-30T12:29:52.245Z,13.08
2019-04-30T12:30:58.740Z,13.58
2019-04-30T12:32:02.680Z,14.28
2019-04-30T12:33:08.998Z,14.93
2019-04-30T12:34:13.256Z,14.23
2019-04-30T12:35:18.173Z,15.10
2019-04-30T12:36:22.539Z,14.45
2019-04-30T12:37:26.887Z,14.85
2019-04-30T12:38:31.195Z,14.63
2019-04-30T12:39:35.520Z,15.30
2019-04-30T12:40:39.961Z,14.33
2019-04-30T12:41:44.477Z,14.40
2019-04-30T12:42:48.801Z,14.70
2019-04-30T12:43:53.339Z,14.40
2019-04-30T12:44:59.426Z,15.20
2019-04-30T12:46:05.543Z,14.65
2019-04-30T12:47:10.075Z,15.60
2019-04-30T12:48:20.339Z,14.60
2019-04-30T12:49:24.735Z,15.83
2019-04-30T12:50:54.143Z,14.98
2019-04-30T12:52:19.528Z,15.00
2019-04-30T12:53:29.050Z,14.03
2019-04-30T12:54:44.539Z,14.98
2019-04-30T12:56:00.267Z,15.18
2019-04-30T12:57:23.391Z,15.55
2019-04-30T12:58:27.694Z,16.57
2019-04-30T12:59:32.042Z,16.70
2019-04-30T13:00:36.499Z,16.80
2019-04-30T13:01:41.002Z,16.97
2019-04-30T13:02:45.383Z,16.20
2019-04-30T13:03:58.110Z,15.28
2019-04-30T13:04:55.747Z,15.98
2019-04-30T13:06:01.628Z,14.40
2019-04-30T13:07:07.083Z,16.05
2019-04-30T13:08:12.877Z,16.30
2019-04-30T13:09:19.847Z,16.20
2019-04-30T13:10:24.284Z,16.30
2019-04-30T13:11:30.827Z,16.48
2019-04-30T13:12:35.689Z,15.68
2019-04-30T13:13:41.407Z,17.35
2019-04-30T13:14:53.946Z,17.02
2019-04-30T13:15:52.512Z,17.70
2019-04-30T13:16:58.917Z,16.15
2019-04-30T13:18:02.972Z,17.25
2019-04-30T13:19:09.173Z,17.90
2019-04-30T13:20:21.038Z,16.40
2019-04-30T13:21:20.337Z,17.40
2019-04-30T13:22:24.831Z,16.32
2019-04-30T13:23:29.780Z,16.52
2019-04-30T13:24:34.217Z,16.00
2019-04-30T13:25:49.011Z,16.45
2019-04-30T13:26:44.820Z,17.05
2019-04-30T13:27:53.015Z,15.90
2019-04-30T13:29:02.000Z,16.27
2019-04-30T13:30:13.694Z,17.48
2019-04-30T13:31:19.346Z,17.35
2019-04-30T13:32:30.178Z,17.80
2019-04-30T13:33:39.307Z,17.25
2019-04-30T13:34:48.591Z,17.77
2019-04-30T13:35:52.993Z,19.05
2019-04-30T13:36:59.287Z,18.23
2019-04-30T13:38:16.445Z,19.37
2019-04-30T13:39:27.097Z,19.35
2019-04-30T13:40:39.397Z,18.12
2019-04-30T13:41:59.152Z,18.80
2019-04-30T13:43:03.736Z,18.35
2019-04-30T13:44:16.615Z,18.00
2019-04-30T13:45:20.911Z,18.05
2019-04-30T13:46:25.536Z,18.73
2019-04-30T13:47:29.986Z,18.80
2019-04-30T13:48:34.398Z,18.62
2019-04-30T13:49:39.505Z,18.82
2019-04-30T13:50:43.987Z,18.77
2019-04-30T13:51:48.333Z,18.30
2019-04-30T13:52:52.728Z,18.85
2019-04-30T13:53:57.084Z,18.73
2019-04-30T13:55:01.541Z,18.00
2019-04-30T13:56:06.007Z,19.67
2019-04-30T13:57:10.353Z,20.68
2019-04-30T13:58:14.683Z,19.73
2019-04-30T13:59:19.183Z,19.87
2019-04-30T14:00:26.208Z,20.75
2019-04-30T14:01:30.605Z,21.20
2019-04-30T14:02:38.564Z,21.48
2019-04-30T14:03:49.838Z,20.77
2019-04-30T14:05:13.561Z,22.40
2019-04-30T14:06:19.801Z,20.90
2019-04-30T14:07:40.036Z,22.17
2019-04-30T14:08:48.723Z,21.50
2019-04-30T14:09:53.189Z,22.65
2019-04-30T14:10:59.197Z,22.10
2019-04-30T14:12:03.753Z,21.30
2019-04-30T14:13:08.935Z,21.42
2019-04-30T14:14:13.306Z,21.73
2019-04-30T14:15:19.233Z,21.80
2019-04-30T14:16:23.733Z,21.30
2019-04-30T14:17:29.638Z,22.90
2019-04-30T14:18:34.319Z,21.73